Time;durP1;ratioP1;P1;durP2;ratioP2;P2;SDS_P1;SDS_P2;PMS_P1;PMS_P2;Temp;Humidity;BMP_temperature;BMP_pressure;BME280_temperature;BME280_humidity;BME280_pressure;Samples;Min_cycle;Max_cycle;Signal;HPM_P1;HPM_P2
2023/07/05 00:01:07;;;;;;;6.73;4.60;;;;;;;18.89;78.59;97729.44;4143056;28;20793;-77
2023/07/05 00:03:13;;;;;;;5.80;4.10;;;;;;;18.87;79.26;97733.22;4143777;28;20634;-78
2023/07/05 00:05:16;;;;;;;6.33;4.57;;;;;;;18.83;79.25;97732.72;4153455;28;21312;-78
2023/07/05 00:07:19;;;;;;;5.90;4.37;;;;;;;18.81;79.47;97729.44;4140180;28;20626;-78
2023/07/05 00:09:22;;;;;;;5.43;4.13;;;;;;;18.80;79.43;97726.97;4172125;28;20640;-78
2023/07/05 00:11:25;;;;;;;6.70;5.70;;;;;;;18.79;79.06;97723.47;4151511;28;20638;-78
2023/07/05 00:13:29;;;;;;;7.97;5.30;;;;;;;18.80;79.93;97714.56;4142308;28;21271;-78
2023/07/05 00:15:33;;;;;;;7.80;5.00;;;;;;;18.81;80.14;97710.94;4151218;28;21259;-78
2023/07/05 00:17:36;;;;;;;7.20;4.37;;;;;;;18.84;80.24;97707.13;4159560;28;20635;-78
2023/07/05 00:19:39;;;;;;;5.90;4.10;;;;;;;18.84;79.79;97700.03;4140791;28;20626;-78
2023/07/05 00:21:43;;;;;;;6.60;4.87;;;;;;;18.84;80.23;97697.41;4152479;28;20687;-78
2023/07/05 00:23:46;;;;;;;7.43;5.37;;;;;;;18.85;79.83;97701.66;4139917;28;20642;-78
2023/07/05 00:25:49;;;;;;;7.07;4.90;;;;;;;18.88;79.96;97697.88;4154804;28;20634;-78
2023/07/05 00:27:53;;;;;;;7.70;5.67;;;;;;;18.88;79.14;97698.69;4130986;28;20674;-78
2023/07/05 00:29:56;;;;;;;6.77;4.50;;;;;;;18.88;79.25;97698.69;4151578;28;20744;-78
2023/07/05 00:32:00;;;;;;;11.10;4.70;;;;;;;18.88;79.17;97696.91;4154682;28;20625;-78
2023/07/05 00:34:05;;;;;;;7.13;4.27;;;;;;;18.88;78.80;97693.41;4156209;28;20654;-78
2023/07/05 00:36:08;;;;;;;5.73;4.43;;;;;;;18.86;79.56;97698.03;4139952;28;20688;-78
2023/07/05 00:38:11;;;;;;;7.90;5.07;;;;;;;18.82;79.21;97687.97;4165179;28;20635;-78
2023/07/05 00:40:15;;;;;;;6.67;4.77;;;;;;;18.81;78.11;97686.31;4141645;28;20638;-78
2023/07/05 00:42:18;;;;;;;6.13;4.20;;;;;;;18.78;77.95;97695.41;4154825;28;21317;-78
2023/07/05 00:44:21;;;;;;;6.10;4.77;;;;;;;18.73;79.12;97689.78;4136200;28;20633;-78
2023/07/05 00:46:26;;;;;;;6.23;4.33;;;;;;;18.71;78.96;97690.94;4156199;28;21177;-78
2023/07/05 00:48:35;;;;;;;6.10;4.63;;;;;;;18.63;79.31;97689.13;4142654;28;20721;-78
2023/07/05 00:50:40;;;;;;;6.07;4.77;;;;;;;18.58;79.19;97687.94;4159488;28;20728;-78
2023/07/05 00:52:43;;;;;;;7.23;5.17;;;;;;;18.54;78.81;97686.66;4171005;28;20792;-78
2023/07/05 00:54:55;;;;;;;5.53;4.30;;;;;;;18.46;79.50;97682.19;4155232;28;20724;-78
2023/07/05 00:57:03;;;;;;;6.50;4.50;;;;;;;18.43;79.31;97669.28;4153772;28;20636;-82
2023/07/05 00:59:06;;;;;;;7.50;5.47;;;;;;;18.40;79.89;97683.81;4153746;28;21428;-82
2023/07/05 01:01:10;;;;;;;6.97;4.77;;;;;;;18.36;79.66;97675.38;4147638;28;20686;-82
2023/07/05 01:03:19;;;;;;;8.10;5.00;;;;;;;18.35;80.17;97692.22;4154532;28;20686;-83
2023/07/05 01:05:25;;;;;;;6.00;4.40;;;;;;;18.34;80.33;97679.97;4169752;28;21035;-82
2023/07/05 01:07:28;;;;;;;6.20;4.43;;;;;;;18.32;79.54;97675.88;4144749;28;20630;-82
2023/07/05 01:09:31;;;;;;;7.33;4.53;;;;;;;18.32;80.61;97667.94;4150031;28;20640;-82
2023/07/05 01:11:51;;;;;;;5.30;3.90;;;;;;;18.33;80.65;97666.94;4155229;28;21259;-82
2023/07/05 01:13:59;;;;;;;5.43;4.20;;;;;;;18.33;81.21;97674.84;4140851;28;20633;-83
2023/07/05 01:16:16;;;;;;;6.70;5.10;;;;;;;18.32;80.63;97658.19;4151407;28;20636;-83
2023/07/05 01:18:25;;;;;;;5.93;4.20;;;;;;;18.32;80.41;97655.56;4143641;28;20983;-82
2023/07/05 01:20:35;;;;;;;5.10;4.13;;;;;;;18.33;80.82;97654.59;4155033;28;20705;-82
2023/07/05 01:23:01;;;;;;;5.33;4.30;;;;;;;18.37;80.52;97658.53;4170253;28;20633;-82
2023/07/05 01:25:21;;;;;;;5.93;4.57;;;;;;;18.42;81.48;97657.06;4151306;28;20732;-82
2023/07/05 01:27:45;;;;;;;5.07;4.23;;;;;;;18.47;80.87;97657.38;4153566;28;20660;-82
2023/07/05 01:30:24;;;;;;;6.47;4.40;;;;;;;18.49;81.16;97659.88;4138756;28;20638;-82
2023/07/05 01:32:32;;;;;;;5.90;4.50;;;;;;;18.54;80.47;97661.03;4114042;28;21307;-82
2023/07/05 01:34:42;;;;;;;7.60;4.73;;;;;;;18.59;80.36;97666.66;4157362;28;20691;-82
2023/07/05 01:36:46;;;;;;;6.13;4.40;;;;;;;18.65;79.85;97667.81;4149405;28;21005;-82
2023/07/05 01:38:52;;;;;;;4.77;3.97;;;;;;;18.73;80.08;97666.00;4150428;28;20638;-82
2023/07/05 01:41:00;;;;;;;8.70;4.00;;;;;;;18.82;79.62;97656.25;4165551;28;20631;-82
2023/07/05 01:43:07;;;;;;;5.60;4.13;;;;;;;18.89;80.63;97652.78;4156143;28;21739;-83
2023/07/05 01:45:10;;;;;;;5.77;4.13;;;;;;;18.94;81.73;97663.66;4153184;28;20669;-82
2023/07/05 01:47:17;;;;;;;6.67;4.40;;;;;;;18.96;81.20;97662.53;4151138;28;21004;-82
2023/07/05 01:49:33;;;;;;;5.03;4.23;;;;;;;18.96;81.92;97654.59;4159780;28;20665;-83
2023/07/05 01:51:43;;;;;;;6.20;4.30;;;;;;;19.00;82.53;97660.38;4140993;28;20634;-82
2023/07/05 01:53:53;;;;;;;6.23;4.73;;;;;;;19.06;83.99;97654.44;4159280;28;20649;-82
2023/07/05 01:55:59;;;;;;;5.73;4.37;;;;;;;19.10;86.35;97669.00;4151526;28;20654;-82
2023/07/05 01:58:07;;;;;;;6.43;3.90;;;;;;;19.08;86.07;97668.34;4137402;28;21694;-82
2023/07/05 02:00:15;;;;;;;7.50;4.90;;;;;;;19.07;86.98;97667.50;4135358;28;20625;-82
2023/07/05 02:02:21;;;;;;;5.90;4.20;;;;;;;18.96;84.31;97661.72;4156989;28;21224;-82
2023/07/05 02:04:27;;;;;;;7.17;4.53;;;;;;;18.92;85.16;97657.72;4156152;28;20700;-82
2023/07/05 02:06:31;;;;;;;5.53;4.50;;;;;;;18.89;85.38;97656.25;4170077;28;20624;-82
2023/07/05 02:08:36;;;;;;;6.87;5.13;;;;;;;18.88;86.31;97646.69;4155963;28;20974;-82
2023/07/05 02:10:40;;;;;;;5.97;4.80;;;;;;;18.86;86.52;97649.66;4157386;28;20645;-82
2023/07/05 02:12:44;;;;;;;6.27;4.83;;;;;;;18.84;87.84;97652.47;4152488;28;20637;-82
2023/07/05 02:14:48;;;;;;;6.40;4.50;;;;;;;18.83;87.88;97661.38;4157235;28;20630;-82
2023/07/05 02:16:51;;;;;;;6.03;4.87;;;;;;;18.81;87.94;97670.44;4146637;28;20642;-82
2023/07/05 02:18:54;;;;;;;5.83;4.67;;;;;;;18.81;87.51;97670.44;4143176;28;21210;-82
2023/07/05 02:20:58;;;;;;;7.67;5.40;;;;;;;18.78;86.99;97666.34;4138752;28;20673;-82
2023/07/05 02:23:01;;;;;;;8.13;4.97;;;;;;;18.76;85.98;97678.88;4158054;28;20642;-83
2023/07/05 02:25:06;;;;;;;6.03;4.50;;;;;;;18.74;86.30;97680.88;4155005;28;20640;-82
2023/07/05 02:27:09;;;;;;;6.90;4.70;;;;;;;18.72;85.46;97682.00;4145573;28;20735;-82
2023/07/05 02:29:12;;;;;;;6.27;4.53;;;;;;;18.69;85.61;97698.22;4138680;28;20748;-82
2023/07/05 02:31:17;;;;;;;6.10;4.40;;;;;;;18.64;85.76;97719.84;4156726;28;20625;-82
2023/07/05 02:33:20;;;;;;;5.73;4.17;;;;;;;18.58;85.04;97728.44;4142922;28;20677;-82
2023/07/05 02:35:23;;;;;;;6.10;4.77;;;;;;;18.56;85.97;97709.25;4137907;28;20704;-82
2023/07/05 02:37:32;;;;;;;4.80;3.80;;;;;;;18.58;86.92;97728.44;4168578;28;20675;-82
2023/07/05 02:39:35;;;;;;;6.83;4.60;;;;;;;18.64;87.32;97754.19;4154010;28;20671;-82
2023/07/05 02:41:38;;;;;;;5.13;4.00;;;;;;;18.70;88.13;97750.06;4152820;28;20698;-83
2023/07/05 02:43:42;;;;;;;6.83;4.50;;;;;;;18.73;88.83;97768.22;4142215;28;21002;-82
2023/07/05 02:45:45;;;;;;;7.60;4.63;;;;;;;18.75;89.27;97766.25;4133894;28;20645;-82
2023/07/05 02:47:48;;;;;;;5.87;3.83;;;;;;;18.82;88.42;97767.25;4153022;28;21013;-82
2023/07/05 02:49:52;;;;;;;5.83;4.10;;;;;;;18.87;89.21;97757.84;4168137;28;20633;-82
2023/07/05 02:51:56;;;;;;;8.47;4.50;;;;;;;18.91;89.28;97756.53;4151445;28;20716;-82
2023/07/05 02:54:00;;;;;;;4.70;3.60;;;;;;;18.94;89.35;97759.69;4151064;28;20696;-82
2023/07/05 02:56:04;;;;;;;5.70;4.07;;;;;;;18.97;90.34;97759.34;4131154;28;20669;-82
2023/07/05 02:58:07;;;;;;;5.30;4.10;;;;;;;18.99;90.13;97756.56;4153611;28;20751;-82
2023/07/05 03:00:12;;;;;;;7.20;4.20;;;;;;;19.02;89.89;97766.84;4157836;28;20635;-82
2023/07/05 03:02:16;;;;;;;4.80;3.90;;;;;;;19.02;89.40;97756.25;4140286;28;20642;-82
2023/07/05 03:04:20;;;;;;;5.53;3.90;;;;;;;19.04;89.68;97764.84;4155261;28;21034;-82
2023/07/05 03:06:23;;;;;;;8.00;4.23;;;;;;;19.03;88.57;97761.38;4140387;28;20732;-82
2023/07/05 03:08:28;;;;;;;5.80;3.90;;;;;;;19.01;86.60;97746.63;4152717;28;21479;-82
2023/07/05 03:10:32;;;;;;;7.30;3.80;;;;;;;19.01;87.73;97752.75;4167469;28;20739;-81
2023/07/05 03:12:35;;;;;;;7.07;4.20;;;;;;;19.02;89.90;97759.72;4159583;28;20616;-81
2023/07/05 03:14:40;;;;;;;5.07;4.17;;;;;;;18.99;91.91;97756.56;4138526;28;20673;-81
2023/07/05 03:16:43;;;;;;;4.97;3.97;;;;;;;18.97;91.79;97766.44;4155503;28;20780;-81
2023/07/05 03:18:47;;;;;;;7.40;4.10;;;;;;;18.95;92.60;97773.72;4142328;28;21240;-81
2023/07/05 03:20:50;;;;;;;5.57;3.87;;;;;;;18.92;93.66;97764.28;4156958;28;20662;-81
2023/07/05 03:22:53;;;;;;;8.00;4.07;;;;;;;18.90;93.59;97770.75;4156729;28;20642;-81
2023/07/05 03:24:57;;;;;;;7.23;3.80;;;;;;;18.90;93.73;97760.19;4144237;28;20638;-81
2023/07/05 03:27:01;;;;;;;4.67;3.73;;;;;;;18.90;92.91;97754.88;4162597;28;21189;-81
2023/07/05 03:29:05;;;;;;;5.67;4.07;;;;;;;18.90;91.97;97752.25;4154385;28;20663;-81
2023/07/05 03:31:11;;;;;;;5.53;4.00;;;;;;;18.90;93.48;97754.88;4154343;28;20646;-81
2023/07/05 03:33:14;;;;;;;5.57;4.17;;;;;;;18.89;93.63;97758.50;4168494;28;20621;-81
2023/07/05 03:35:17;;;;;;;4.87;3.70;;;;;;;18.88;93.85;97756.03;4143324;28;20642;-81
2023/07/05 03:37:20;;;;;;;6.47;4.60;;;;;;;18.87;92.99;97754.38;4151975;28;21311;-81
2023/07/05 03:39:23;;;;;;;6.13;4.53;;;;;;;18.86;92.87;97760.66;4158867;28;20670;-81
2023/07/05 03:41:27;;;;;;;6.80;4.03;;;;;;;18.87;92.70;97763.16;4154044;28;20672;-81
2023/07/05 03:43:35;;;;;;;6.03;3.93;;;;;;;18.89;93.22;97766.44;4148717;28;20651;-81
2023/07/05 03:45:38;;;;;;;5.83;4.93;;;;;;;18.92;94.07;97763.47;4141158;28;20630;-81
2023/07/05 03:47:41;;;;;;;7.60;4.67;;;;;;;18.93;93.48;97765.94;4144370;28;20642;-81
2023/07/05 03:49:44;;;;;;;6.40;4.43;;;;;;;18.95;94.22;97771.06;4152051;28;20647;-81
2023/07/05 03:51:47;;;;;;;6.70;4.10;;;;;;;18.94;94.34;97769.41;4156615;28;21237;-82
2023/07/05 03:53:51;;;;;;;6.57;4.53;;;;;;;18.91;93.85;97773.22;4155491;28;20665;-81
2023/07/05 03:55:55;;;;;;;5.60;3.53;;;;;;;18.91;93.19;97772.38;4152322;28;20708;-82
2023/07/05 03:57:58;;;;;;;5.87;4.10;;;;;;;18.93;92.97;97773.06;4158359;28;20622;-81
2023/07/05 04:00:05;;;;;;;5.47;3.83;;;;;;;18.96;93.00;97778.03;4152214;28;20628;-81
2023/07/05 04:02:14;;;;;;;5.30;3.70;;;;;;;18.99;92.86;97778.53;4147487;28;20680;-82
2023/07/05 04:04:17;;;;;;;4.77;3.73;;;;;;;18.99;93.48;97785.63;4153069;28;20667;-82
2023/07/05 04:06:21;;;;;;;4.90;3.97;;;;;;;19.02;93.60;97785.34;4150794;28;20726;-82
2023/07/05 04:08:24;;;;;;;5.97;4.17;;;;;;;19.03;93.94;97786.97;4157839;28;20628;-82
2023/07/05 04:10:27;;;;;;;8.60;3.90;;;;;;;19.05;92.84;97785.00;4156733;28;20653;-82
2023/07/05 04:12:31;;;;;;;7.20;3.80;;;;;;;19.06;93.02;97787.50;4136933;28;20630;-82
2023/07/05 04:14:36;;;;;;;4.73;3.70;;;;;;;19.07;94.12;97778.56;4155880;28;20637;-82
2023/07/05 04:16:40;;;;;;;6.23;3.77;;;;;;;19.09;94.12;97781.03;4153123;28;21167;-82
2023/07/05 04:18:45;;;;;;;6.00;3.60;;;;;;;19.10;94.49;97775.56;4153503;28;20675;-82
2023/07/05 04:20:47;;;;;;;6.60;3.80;;;;;;;19.11;94.64;97773.75;4131506;28;20711;-84
2023/07/05 04:22:50;;;;;;;4.30;3.17;;;;;;;19.12;94.89;97778.88;4152193;28;20979;-84
2023/07/05 04:24:54;;;;;;;4.73;3.23;;;;;;;19.16;94.33;97779.38;4152987;28;20628;-82
2023/07/05 04:26:57;;;;;;;4.63;3.60;;;;;;;19.20;93.62;97778.91;4151412;28;20817;-82
2023/07/05 04:29:00;;;;;;;5.47;2.57;;;;;;;19.24;92.98;97772.25;4158496;28;20626;-81
2023/07/05 04:31:03;;;;;;;3.90;3.20;;;;;;;19.27;93.88;97779.88;4154972;28;20665;-83
2023/07/05 04:33:07;;;;;;;3.87;3.07;;;;;;;19.32;93.69;97779.38;4139144;28;20645;-83
2023/07/05 04:35:11;;;;;;;4.80;2.80;;;;;;;19.36;93.26;97778.06;4158506;28;20661;-85
2023/07/05 04:37:14;;;;;;;4.17;3.70;;;;;;;19.40;93.54;97786.31;4154472;28;20652;-84
2023/07/05 04:39:31;;;;;;;3.50;2.50;;;;;;;19.46;93.07;97782.19;4162895;28;21002;-83
2023/07/05 04:41:34;;;;;;;3.50;2.20;;;;;;;19.48;94.00;97781.03;4156802;28;20657;-84
2023/07/05 04:43:37;;;;;;;2.90;2.20;;;;;;;19.52;92.18;97781.53;4161837;28;20639;-84
2023/07/05 04:45:40;;;;;;;5.10;2.50;;;;;;;19.52;92.85;97779.69;4160168;28;20654;-84
2023/07/05 04:47:44;;;;;;;3.33;2.40;;;;;;;19.50;93.62;97776.41;4153580;28;20663;-84
2023/07/05 04:49:49;;;;;;;3.13;2.07;;;;;;;19.54;93.08;97776.88;4157191;28;20633;-84
2023/07/05 04:51:52;;;;;;;2.87;2.10;;;;;;;19.55;94.26;97768.78;4154517;28;20665;-85
2023/07/05 04:53:55;;;;;;;4.73;2.23;;;;;;;19.58;92.66;97763.16;4154577;28;21246;-85
2023/07/05 04:55:59;;;;;;;3.43;2.50;;;;;;;19.63;92.65;97766.09;4128531;28;20642;-85
2023/07/05 04:58:03;;;;;;;3.60;2.77;;;;;;;19.68;92.51;97769.09;4132853;28;20681;-85
2023/07/05 05:00:09;;;;;;;2.97;2.27;;;;;;;19.71;93.37;97768.75;4148416;28;21090;-85
2023/07/05 05:02:12;;;;;;;3.33;2.10;;;;;;;19.76;92.60;97761.13;4153425;28;20649;-85
2023/07/05 05:04:15;;;;;;;3.17;2.27;;;;;;;19.79;91.87;97762.63;4140387;28;20678;-85
2023/07/05 05:06:19;;;;;;;3.70;2.77;;;;;;;19.80;92.27;97769.53;4152831;28;20645;-86
2023/07/05 05:08:23;;;;;;;3.63;2.90;;;;;;;19.82;93.22;97765.75;4150107;28;21256;-86
2023/07/05 05:10:26;;;;;;;3.03;2.47;;;;;;;19.85;92.60;97766.22;4154497;28;20659;-85
2023/07/05 05:12:29;;;;;;;2.93;2.37;;;;;;;19.91;93.22;97768.22;4153942;28;21494;-85
2023/07/05 05:14:33;;;;;;;4.57;2.70;;;;;;;20.00;91.80;97758.44;4154238;28;20630;-85
2023/07/05 05:16:36;;;;;;;4.07;2.23;;;;;;;20.09;93.05;97763.53;4166270;28;20644;-85
2023/07/05 05:18:40;;;;;;;4.53;2.50;;;;;;;20.20;91.87;97754.41;4156000;28;20758;-86
2023/07/05 05:20:43;;;;;;;3.10;2.00;;;;;;;20.24;92.32;97751.22;4156249;28;20687;-85
2023/07/05 05:22:47;;;;;;;2.33;1.93;;;;;;;20.30;92.06;97744.41;4152276;28;20733;-84
2023/07/05 05:24:51;;;;;;;2.97;1.90;;;;;;;20.36;91.87;97752.50;4150171;28;20686;-84
2023/07/05 05:26:55;;;;;;;2.70;1.73;;;;;;;20.41;92.55;97743.00;4138200;28;20658;-85
2023/07/05 05:28:58;;;;;;;4.20;2.70;;;;;;;20.49;91.33;97750.94;4154028;28;20719;-85
2023/07/05 05:31:04;;;;;;;2.80;1.83;;;;;;;20.53;90.66;97754.06;4146066;28;20637;-85
2023/07/05 05:33:07;;;;;;;3.23;1.93;;;;;;;20.51;91.60;97746.28;4148470;28;20634;-85
2023/07/05 05:35:13;;;;;;;3.60;2.07;;;;;;;20.53;91.04;97746.13;4156716;28;20630;-85
2023/07/05 05:37:16;;;;;;;2.87;2.00;;;;;;;20.56;90.17;97749.22;4137855;28;21102;-86
2023/07/05 05:39:21;;;;;;;2.20;1.57;;;;;;;20.67;91.54;97754.16;4159440;28;20661;-85
2023/07/05 05:41:24;;;;;;;3.67;2.30;;;;;;;20.80;90.11;97766.88;4169489;28;20663;-85
2023/07/05 05:43:27;;;;;;;3.30;1.90;;;;;;;20.92;89.73;97764.44;4157083;28;20637;-85
2023/07/05 05:45:33;;;;;;;2.87;2.00;;;;;;;21.02;90.05;97766.88;4139922;28;20635;-86
2023/07/05 05:47:36;;;;;;;2.60;1.87;;;;;;;21.12;90.13;97773.56;4153773;28;21606;-85
2023/07/05 05:49:39;;;;;;;2.70;1.90;;;;;;;21.22;88.67;97776.00;4161218;28;21065;-85
2023/07/05 05:51:42;;;;;;;2.37;1.63;;;;;;;21.25;88.99;97762.38;4154869;28;20619;-85
2023/07/05 05:53:45;;;;;;;2.80;1.87;;;;;;;21.23;88.79;97757.25;4154915;28;20696;-85
2023/07/05 05:55:50;;;;;;;2.87;2.10;;;;;;;21.24;88.15;97758.06;4152309;28;20733;-85
2023/07/05 05:57:53;;;;;;;2.90;2.00;;;;;;;21.25;88.61;97762.38;4156055;28;20650;-85
2023/07/05 05:59:56;;;;;;;3.43;1.70;;;;;;;21.22;88.68;97760.09;4159909;28;20692;-85
2023/07/05 06:02:00;;;;;;;3.00;2.00;;;;;;;21.18;88.46;97759.59;4143029;28;20676;-85
2023/07/05 06:04:03;;;;;;;5.00;2.10;;;;;;;21.17;87.81;97759.78;4154952;28;21242;-85
2023/07/05 06:06:08;;;;;;;2.70;2.00;;;;;;;21.15;88.89;97757.28;4153444;28;20634;-85
2023/07/05 06:08:11;;;;;;;2.80;2.10;;;;;;;21.15;88.32;97757.28;4152069;28;20630;-85
2023/07/05 06:10:14;;;;;;;2.80;2.10;;;;;;;21.14;88.96;97752.16;4153531;28;21513;-85
2023/07/05 06:12:20;;;;;;;3.47;2.47;;;;;;;21.12;89.02;97754.19;4157781;28;20638;-85
2023/07/05 06:14:24;;;;;;;5.73;2.20;;;;;;;21.11;89.15;97749.88;4158268;28;20630;-85
2023/07/05 06:16:27;;;;;;;2.70;2.00;;;;;;;21.13;88.46;97751.34;4137234;28;20637;-85
2023/07/05 06:18:30;;;;;;;3.10;2.20;;;;;;;21.14;89.04;97760.13;4155937;28;20657;-85
2023/07/05 06:20:34;;;;;;;2.40;1.80;;;;;;;21.16;89.20;97771.41;4154549;28;21205;-85
2023/07/05 06:22:38;;;;;;;3.23;1.83;;;;;;;21.16;89.55;97779.38;4152493;28;20638;-85
2023/07/05 06:24:42;;;;;;;2.67;1.63;;;;;;;21.14;88.84;97776.03;4152187;28;20646;-85
2023/07/05 06:26:45;;;;;;;2.93;1.90;;;;;;;21.13;88.31;97782.38;4157936;28;20641;-86
2023/07/05 06:28:50;;;;;;;3.00;2.00;;;;;;;21.12;88.03;97778.06;4153217;28;20640;-85
2023/07/05 06:30:53;;;;;;;2.43;1.43;;;;;;;21.11;87.59;97779.91;4143011;28;21328;-85
2023/07/05 06:32:56;;;;;;;3.50;1.80;;;;;;;21.12;88.25;97784.19;4158468;28;20645;-84
2023/07/05 06:35:00;;;;;;;2.77;1.83;;;;;;;21.05;89.40;97793.88;4154438;28;20639;-85
2023/07/05 06:37:03;;;;;;;3.37;1.80;;;;;;;20.89;91.50;97796.63;4156118;28;20639;-86
2023/07/05 06:39:06;;;;;;;2.37;1.60;;;;;;;20.83;90.56;97815.88;4152970;28;21226;-82
2023/07/05 06:41:09;;;;;;;2.60;1.77;;;;;;;20.85;92.41;97842.22;4143765;28;20646;-83
2023/07/05 06:43:12;;;;;;;5.13;2.40;;;;;;;20.80;93.81;97855.19;4139202;28;20730;-84
2023/07/05 06:45:17;;;;;;;4.20;2.93;;;;;;;20.64;96.22;97835.84;4148966;28;20646;-84
2023/07/05 06:47:20;;;;;;;4.63;1.87;;;;;;;20.47;97.20;97842.22;4152407;28;20625;-84
2023/07/05 06:49:24;;;;;;;5.40;1.97;;;;;;;20.25;97.33;97848.25;4153624;28;21234;-84
2023/07/05 06:51:27;;;;;;;4.90;2.60;;;;;;;20.16;98.48;97848.44;4152322;28;20627;-84
2023/07/05 06:53:30;;;;;;;3.80;2.00;;;;;;;20.11;100.00;97853.41;4156952;28;20631;-84
2023/07/05 06:55:39;;;;;;;2.57;1.70;;;;;;;20.04;100.00;97882.41;4155334;28;20636;-84
2023/07/05 06:57:42;;;;;;;3.03;1.90;;;;;;;19.99;100.00;97883.91;4150665;28;21517;-84
2023/07/05 06:59:45;;;;;;;4.20;2.00;;;;;;;19.83;100.00;97872.47;4136599;28;20647;-84
2023/07/05 07:01:50;;;;;;;4.17;3.17;;;;;;;19.75;100.00;97891.00;4157390;28;21458;-84
2023/07/05 07:03:53;;;;;;;4.13;2.40;;;;;;;19.66;100.00;97878.75;4158180;28;20647;-84
2023/07/05 07:05:58;;;;;;;5.40;1.90;;;;;;;19.60;100.00;97892.66;4151746;28;21432;-84
2023/07/05 07:08:02;;;;;;;2.73;1.80;;;;;;;19.53;100.00;97891.66;4159282;28;21037;-85
2023/07/05 07:10:06;;;;;;;2.90;1.70;;;;;;;19.49;100.00;97895.63;4158297;28;20637;-84
2023/07/05 07:12:10;;;;;;;4.13;1.90;;;;;;;19.46;100.00;97899.41;4154509;28;21227;-84
2023/07/05 07:14:13;;;;;;;3.50;2.50;;;;;;;19.40;100.00;97900.06;4159465;28;20648;-84
2023/07/05 07:16:17;;;;;;;2.13;1.40;;;;;;;19.38;100.00;97909.19;4150986;28;20707;-84
2023/07/05 07:18:24;;;;;;;2.90;1.80;;;;;;;19.36;100.00;97916.44;4150552;28;20684;-84
2023/07/05 07:20:27;;;;;;;4.10;2.10;;;;;;;19.34;100.00;97910.50;4158351;28;20645;-84
2023/07/05 07:22:30;;;;;;;3.40;1.70;;;;;;;19.34;100.00;97922.91;4155115;28;20679;-83
2023/07/05 07:24:33;;;;;;;3.40;1.67;;;;;;;19.31;100.00;97928.53;4142361;28;20647;-84
2023/07/05 07:26:37;;;;;;;5.57;1.90;;;;;;;19.32;100.00;97916.94;4154378;28;20639;-84
2023/07/05 07:28:40;;;;;;;3.30;2.00;;;;;;;19.29;100.00;97927.81;4151666;28;21017;-84
2023/07/05 07:30:44;;;;;;;3.37;1.83;;;;;;;19.28;100.00;97926.19;4152351;28;20668;-84
2023/07/05 07:32:47;;;;;;;2.80;1.50;;;;;;;19.31;100.00;97928.53;4154452;28;21227;-84
2023/07/05 07:34:53;;;;;;;2.77;1.70;;;;;;;19.39;100.00;97927.53;4149900;28;20648;-83
2023/07/05 07:36:56;;;;;;;3.87;2.10;;;;;;;19.50;100.00;97934.31;4160151;28;20630;-83
2023/07/05 07:38:59;;;;;;;3.20;1.70;;;;;;;19.59;100.00;97934.19;4139745;28;20680;-83
2023/07/05 07:41:03;;;;;;;3.80;2.20;;;;;;;19.76;100.00;97937.69;4154191;28;20637;-83
2023/07/05 07:43:06;;;;;;;3.43;2.20;;;;;;;19.96;100.00;97938.00;4153532;28;20632;-83
2023/07/05 07:45:10;;;;;;;5.27;3.20;;;;;;;20.16;100.00;97933.19;4141879;28;20635;-83
2023/07/05 07:47:13;;;;;;;3.33;2.10;;;;;;;20.26;100.00;97936.50;4153512;28;20665;-83
2023/07/05 07:49:16;;;;;;;4.20;2.20;;;;;;;20.25;100.00;97946.28;4150537;28;20641;-83
2023/07/05 07:51:22;;;;;;;3.50;2.30;;;;;;;20.20;100.00;97940.66;4145737;28;21262;-83
2023/07/05 07:53:40;;;;;;;3.53;1.83;;;;;;;20.18;100.00;97934.69;4157683;28;20766;-83
2023/07/05 07:55:43;;;;;;;2.87;1.83;;;;;;;20.15;100.00;97936.88;4156874;28;20665;-83
2023/07/05 07:57:46;;;;;;;2.50;1.70;;;;;;;20.19;100.00;97932.88;4153981;28;20713;-83
2023/07/05 07:59:52;;;;;;;2.60;1.57;;;;;;;20.37;100.00;97950.22;4149111;28;20656;-81
2023/07/05 08:01:56;;;;;;;3.03;1.60;;;;;;;20.71;100.00;97956.97;4149529;28;20622;-84
2023/07/05 08:04:01;;;;;;;2.60;1.70;;;;;;;20.91;100.00;97952.91;4153880;28;20707;-82
2023/07/05 08:06:06;;;;;;;7.13;1.97;;;;;;;20.98;100.00;97956.53;4155297;28;20634;-83
2023/07/05 08:08:11;;;;;;;3.47;2.10;;;;;;;20.93;98.14;97961.56;4150890;28;20827;-83
2023/07/05 08:10:15;;;;;;;3.30;1.73;;;;;;;20.85;98.26;97956.25;4135335;28;20634;-83
2023/07/05 08:12:18;;;;;;;2.43;1.57;;;;;;;20.75;96.88;97962.75;4147051;28;20726;-84
2023/07/05 08:14:21;;;;;;;2.97;1.93;;;;;;;20.66;96.76;97963.72;4162791;28;20629;-83
2023/07/05 08:16:24;;;;;;;3.33;1.73;;;;;;;20.50;94.18;97969.09;4157195;28;21229;-82
2023/07/05 08:18:28;;;;;;;3.50;1.73;;;;;;;20.58;95.00;97975.22;4147990;28;20643;-84
2023/07/05 08:20:31;;;;;;;3.63;1.67;;;;;;;20.95;96.54;97981.56;4155199;28;20720;-83
2023/07/05 08:22:34;;;;;;;2.37;1.70;;;;;;;20.94;93.68;97979.09;4146073;28;20646;-83
2023/07/05 08:24:39;;;;;;;4.30;2.40;;;;;;;20.87;92.17;97972.84;4168015;28;20671;-84
2023/07/05 08:26:42;;;;;;;2.97;1.90;;;;;;;20.80;93.09;97971.84;4146473;28;21332;-84
2023/07/05 08:28:46;;;;;;;4.43;2.53;;;;;;;20.73;91.88;97973.53;4152187;28;20633;-83
2023/07/05 08:30:56;;;;;;;3.70;2.17;;;;;;;20.67;91.87;97976.00;4170670;28;20651;-84
2023/07/05 08:33:02;;;;;;;3.07;1.97;;;;;;;20.61;91.10;97969.56;4154937;28;20649;-84
2023/07/05 08:35:06;;;;;;;3.63;2.50;;;;;;;20.65;89.86;97983.31;4139080;28;20649;-85
2023/07/05 08:37:10;;;;;;;3.87;2.93;;;;;;;20.65;90.04;97983.31;4154645;28;20668;-84
2023/07/05 08:39:13;;;;;;;4.20;2.87;;;;;;;20.69;89.36;97984.63;4158525;28;20660;-84
2023/07/05 08:41:23;;;;;;;4.97;3.40;;;;;;;20.67;90.62;97987.47;4169869;28;20643;-84
2023/07/05 08:43:35;;;;;;;4.70;3.03;;;;;;;20.59;90.09;97998.06;4142937;28;20640;-84
2023/07/05 08:45:44;;;;;;;4.33;2.50;;;;;;;20.50;89.13;98001.72;4152510;28;20699;-84
2023/07/05 08:47:49;;;;;;;4.10;2.50;;;;;;;20.39;90.29;98001.25;4160401;28;20617;-84
2023/07/05 08:50:08;;;;;;;4.70;3.23;;;;;;;20.32;88.65;97996.78;4142559;28;21162;-84
2023/07/05 08:52:34;;;;;;;4.93;2.50;;;;;;;20.24;89.94;98020.63;4164011;28;20627;-84
2023/07/05 08:54:39;;;;;;;5.20;2.57;;;;;;;20.18;89.83;98016.00;4140646;28;20649;-84
2023/07/05 08:56:47;;;;;;;4.40;2.97;;;;;;;20.13;90.12;98018.28;4154930;28;21081;-84
2023/07/05 08:58:56;;;;;;;4.47;2.67;;;;;;;20.16;88.37;98024.13;4155319;28;20670;-84
2023/07/05 09:01:01;;;;;;;4.47;2.80;;;;;;;20.18;89.00;98021.31;4153816;28;20731;-84
2023/07/05 09:03:10;;;;;;;6.20;3.37;;;;;;;20.18;87.27;98026.59;4154122;28;21063;-84
2023/07/05 09:05:16;;;;;;;4.57;2.93;;;;;;;20.17;88.31;98031.03;4143295;28;20699;-84
2023/07/05 09:07:27;;;;;;;3.90;2.50;;;;;;;20.22;88.43;98033.19;4155431;28;20663;-84
2023/07/05 09:09:51;;;;;;;5.40;2.83;;;;;;;20.39;87.55;98036.50;4155516;28;20621;-84
2023/07/05 09:12:11;;;;;;;4.53;2.93;;;;;;;20.78;89.20;98042.81;4150755;28;20637;-84
2023/07/05 09:14:40;;;;;;;4.97;3.63;;;;;;;20.96;87.42;98032.81;4159824;28;20651;-84
2023/07/05 09:16:48;;;;;;;6.20;3.50;;;;;;;21.06;86.67;98036.91;4151090;28;20645;-84
2023/07/05 09:18:59;;;;;;;6.00;3.30;;;;;;;21.19;87.49;98036.38;4149709;28;20635;-84
2023/07/05 09:21:09;;;;;;;5.60;3.80;;;;;;;21.26;86.72;98035.53;4151996;28;20689;-84
2023/07/05 09:23:17;;;;;;;7.33;3.07;;;;;;;21.26;86.30;98034.69;4157631;28;20637;-84
2023/07/05 09:25:22;;;;;;;4.17;3.07;;;;;;;21.22;84.78;98030.75;4140500;28;21293;-84
2023/07/05 09:27:50;;;;;;;4.30;2.70;;;;;;;21.40;84.74;98025.00;4156578;28;21235;-84
2023/07/05 09:29:56;;;;;;;4.23;2.80;;;;;;;21.77;83.29;98025.19;4156096;28;20625;-84
2023/07/05 09:32:04;;;;;;;4.53;3.00;;;;;;;22.13;85.13;98029.75;4151907;28;20658;-84
2023/07/05 09:34:17;;;;;;;4.40;2.97;;;;;;;22.44;82.49;98044.63;4155812;28;21134;-84
2023/07/05 09:36:23;;;;;;;4.53;2.87;;;;;;;22.67;80.28;98039.28;4150920;28;20610;-84
2023/07/05 09:38:30;;;;;;;5.73;3.17;;;;;;;22.84;79.10;98033.63;4155723;28;21359;-84
2023/07/05 09:40:38;;;;;;;5.10;3.33;;;;;;;22.87;80.18;98038.59;4152574;28;21111;-84
2023/07/05 09:42:43;;;;;;;7.60;3.40;;;;;;;22.89;76.80;98036.56;4154791;28;20665;-84
2023/07/05 09:44:48;;;;;;;4.40;2.87;;;;;;;23.10;81.57;98047.34;4143196;28;21212;-84
2023/07/05 09:46:51;;;;;;;4.60;3.10;;;;;;;23.33;77.84;98047.06;4155513;28;20624;-84
2023/07/05 09:48:55;;;;;;;4.97;3.50;;;;;;;23.41;77.26;98049.63;4151712;28;21041;-84